Time;durP1;ratioP1;P1;durP2;ratioP2;P2;SDS_P1;SDS_P2;PMS_P1;PMS_P2;Temp;Humidity;BMP_temperature;BMP_pressure;BME280_temperature;BME280_humidity;BME280_pressure;Samples;Min_cycle;Max_cycle;Signal;HPM_P1;HPM_P2
2021/03/24 00:02:08;;;;;;;60.08;36.80;;;8.20;86.90;;;;;;5044696;28;20045;-71
2021/03/24 00:04:53;;;;;;;58.97;33.63;;;8.20;86.90;;;;;;5058126;28;20044;-71
2021/03/24 00:07:40;;;;;;;55.65;32.95;;;8.20;86.80;;;;;;5044336;28;20047;-71
2021/03/24 00:10:27;;;;;;;56.53;33.85;;;8.20;86.50;;;;;;5058316;28;20070;-71
2021/03/24 00:13:13;;;;;;;57.13;33.88;;;8.20;86.20;;;;;;5058007;28;20040;-71
2021/03/24 00:16:01;;;;;;;52.25;32.95;;;8.20;86.30;;;;;;5059172;28;20495;-71
2021/03/24 00:18:47;;;;;;;56.58;33.75;;;8.20;86.10;;;;;;5062076;28;20066;-71
2021/03/24 00:21:32;;;;;;;52.90;32.42;;;8.10;86.00;;;;;;5062382;28;20045;-71
2021/03/24 00:24:18;;;;;;;50.75;32.25;;;8.10;86.00;;;;;;5061714;28;20499;-71
2021/03/24 00:27:04;;;;;;;54.20;32.63;;;8.10;85.90;;;;;;5061841;28;20535;-71
2021/03/24 00:29:50;;;;;;;60.83;31.92;;;8.10;86.00;;;;;;5062298;28;20052;-71
2021/03/24 00:32:36;;;;;;;52.95;32.33;;;8.10;85.90;;;;;;5061652;28;20045;-71
2021/03/24 00:35:22;;;;;;;50.63;30.13;;;8.10;85.70;;;;;;5061455;28;20051;-71
2021/03/24 00:38:09;;;;;;;52.20;32.10;;;8.10;86.00;;;;;;5061521;28;20045;-71
2021/03/24 00:40:57;;;;;;;51.75;32.50;;;8.10;86.10;;;;;;5061647;28;20083;-71
2021/03/24 00:43:43;;;;;;;50.15;30.63;;;8.00;86.10;;;;;;5061566;28;20103;-71
2021/03/24 00:46:28;;;;;;;48.90;30.48;;;8.10;86.00;;;;;;5061389;28;20044;-71
2021/03/24 00:49:14;;;;;;;53.55;31.55;;;8.10;86.00;;;;;;5061578;28;20048;-71
2021/03/24 00:51:59;;;;;;;49.10;31.08;;;8.10;85.80;;;;;;5061345;28;20380;-71
2021/03/24 00:54:45;;;;;;;51.58;33.20;;;8.10;86.00;;;;;;5061116;28;20048;-71
2021/03/24 00:57:31;;;;;;;56.92;33.60;;;8.20;85.70;;;;;;5061269;28;20082;-71
2021/03/24 01:00:22;;;;;;;52.85;31.90;;;8.20;85.80;;;;;;5061559;28;20079;-71
2021/03/24 01:03:07;;;;;;;51.72;32.60;;;8.20;85.80;;;;;;5061042;28;20101;-71
2021/03/24 01:05:53;;;;;;;57.90;33.08;;;8.20;85.70;;;;;;5060622;28;20055;-71
2021/03/24 01:08:39;;;;;;;63.67;33.95;;;8.20;85.70;;;;;;5061307;28;20045;-71
2021/03/24 01:11:25;;;;;;;56.33;34.15;;;8.20;85.80;;;;;;5060741;28;20051;-71
2021/03/24 01:14:11;;;;;;;58.58;33.20;;;8.10;85.90;;;;;;5061010;28;20056;-71
2021/03/24 01:16:57;;;;;;;57.50;34.35;;;8.10;86.00;;;;;;5060908;28;20106;-71
2021/03/24 01:19:43;;;;;;;57.58;33.53;;;8.10;86.10;;;;;;5061496;28;20045;-71
2021/03/24 01:22:29;;;;;;;58.28;33.95;;;8.00;86.00;;;;;;5060564;28;20136;-71
2021/03/24 01:25:16;;;;;;;59.55;35.20;;;8.00;86.00;;;;;;5060779;28;20133;-71
2021/03/24 01:28:05;;;;;;;54.90;32.45;;;8.00;86.90;;;;;;5059942;28;20044;-71
2021/03/24 01:30:56;;;;;;;59.35;34.75;;;8.10;86.20;;;;;;5046762;28;20051;-71
2021/03/24 01:33:41;;;;;;;56.88;33.75;;;8.00;86.20;;;;;;5060933;28;20075;-71
2021/03/24 01:36:28;;;;;;;63.10;35.20;;;8.00;86.10;;;;;;5060243;28;20052;-71
2021/03/24 01:39:14;;;;;;;59.97;34.55;;;8.10;86.10;;;;;;5061127;28;20041;-71
2021/03/24 01:41:59;;;;;;;61.22;35.15;;;8.10;86.10;;;;;;5060659;28;20056;-71
2021/03/24 01:45:07;;;;;;;62.08;36.85;;;8.10;86.10;;;;;;5060350;28;20044;-71
2021/03/24 01:47:54;;;;;;;61.08;34.85;;;8.10;86.10;;;;;;5046544;28;20044;-71
2021/03/24 01:50:40;;;;;;;59.50;33.08;;;8.00;86.20;;;;;;5046429;28;20040;-71
2021/03/24 01:53:26;;;;;;;63.63;35.85;;;8.10;85.90;;;;;;5060874;28;20052;-71
2021/03/24 01:56:14;;;;;;;57.20;34.33;;;8.00;85.80;;;;;;5059692;28;20423;-71
2021/03/24 01:59:00;;;;;;;65.28;35.00;;;8.00;85.80;;;;;;5060479;28;20377;-71
2021/03/24 02:01:46;;;;;;;58.65;35.13;;;8.00;85.90;;;;;;5060460;28;20052;-71
2021/03/24 02:04:31;;;;;;;55.63;33.38;;;8.00;85.80;;;;;;5059793;28;20105;-71
2021/03/24 02:07:30;;;;;;;58.40;33.13;;;8.00;85.50;;;;;;5060055;28;20499;-71
2021/03/24 02:10:29;;;;;;;59.40;33.67;;;7.90;85.20;;;;;;5059789;28;20043;-71
2021/03/24 02:13:28;;;;;;;54.67;33.30;;;7.80;85.50;;;;;;5060084;28;20048;-71
2021/03/24 02:16:20;;;;;;;59.47;34.53;;;7.70;86.40;;;;;;5059545;28;20101;-71
2021/03/24 02:19:17;;;;;;;63.97;36.22;;;7.70;86.20;;;;;;5059777;28;20056;-71
2021/03/24 02:22:06;;;;;;;59.20;35.30;;;7.70;86.30;;;;;;5059383;28;20041;-71
2021/03/24 02:25:24;;;;;;;64.65;35.65;;;7.70;86.20;;;;;;5059506;28;20052;-71
2021/03/24 02:28:13;;;;;;;63.10;36.30;;;7.60;86.30;;;;;;5060285;28;20045;-71
2021/03/24 02:30:59;;;;;;;63.05;36.08;;;7.60;86.20;;;;;;5046024;28;20110;-71
2021/03/24 02:33:46;;;;;;;55.47;33.58;;;7.60;86.30;;;;;;5059249;28;20048;-71
2021/03/24 02:36:32;;;;;;;65.95;34.50;;;7.50;86.20;;;;;;5058999;28;20131;-71
2021/03/24 02:39:20;;;;;;;68.53;38.00;;;7.40;86.30;;;;;;5059079;28;20135;-71
2021/03/24 02:42:08;;;;;;;65.57;35.63;;;7.30;86.20;;;;;;5059677;28;20136;-71
2021/03/24 02:44:53;;;;;;;62.95;36.20;;;7.30;86.60;;;;;;5059083;28;20153;-71
2021/03/24 02:47:42;;;;;;;64.88;37.42;;;7.30;86.70;;;;;;5059661;28;20040;-71
2021/03/24 02:50:28;;;;;;;65.43;38.55;;;7.30;86.70;;;;;;5059361;28;20040;-71
2021/03/24 02:53:14;;;;;;;63.55;37.30;;;7.10;86.70;;;;;;5058933;28;20044;-71
2021/03/24 02:56:06;;;;;;;64.07;36.38;;;7.10;87.00;;;;;;5058632;28;20051;-71
2021/03/24 02:58:52;;;;;;;66.30;37.80;;;7.00;87.10;;;;;;5059332;28;20117;-71
2021/03/24 03:02:10;;;;;;;62.55;35.22;;;7.00;87.10;;;;;;5059011;28;20369;-71
2021/03/24 03:05:12;;;;;;;64.88;37.50;;;7.00;87.30;;;;;;5058903;28;20048;-71
2021/03/24 03:08:14;;;;;;;61.20;35.53;;;7.00;87.30;;;;;;5044885;28;20094;-71
2021/03/24 03:11:11;;;;;;;62.03;37.03;;;6.90;87.50;;;;;;5058713;28;20080;-71
2021/03/24 03:14:04;;;;;;;67.35;36.85;;;6.90;87.70;;;;;;5059277;28;20071;-71
2021/03/24 03:16:58;;;;;;;65.28;38.25;;;6.80;87.70;;;;;;5058761;28;20046;-71
2021/03/24 03:20:11;;;;;;;65.22;39.08;;;6.80;87.60;;;;;;5058819;28;20048;-71
2021/03/24 03:23:14;;;;;;;71.97;38.63;;;6.70;87.80;;;;;;5058548;28;20051;-71
2021/03/24 03:26:02;;;;;;;70.15;38.15;;;6.70;87.70;;;;;;5058288;28;20074;-71
2021/03/24 03:28:56;;;;;;;69.88;41.33;;;6.50;88.00;;;;;;5058343;28;20485;-71
2021/03/24 03:31:45;;;;;;;63.00;37.83;;;6.50;88.20;;;;;;5058994;28;20472;-71
2021/03/24 03:34:32;;;;;;;76.10;40.38;;;6.50;88.30;;;;;;5058425;28;20291;-71
2021/03/24 03:37:19;;;;;;;67.45;37.58;;;6.40;88.20;;;;;;5058888;28;20119;-71
2021/03/24 03:40:11;;;;;;;64.07;38.00;;;6.40;88.40;;;;;;5058395;28;20071;-71
2021/03/24 03:42:58;;;;;;;68.10;37.45;;;6.50;88.40;;;;;;5058187;28;20041;-71
2021/03/24 03:45:47;;;;;;;69.88;37.58;;;6.40;88.20;;;;;;5058134;28;20044;-71
2021/03/24 03:48:33;;;;;;;72.85;40.17;;;6.40;88.30;;;;;;5058351;28;20074;-71
2021/03/24 03:51:44;;;;;;;67.00;38.55;;;6.30;88.90;;;;;;5060769;28;20071;-71
2021/03/24 03:54:37;;;;;;;67.75;38.25;;;6.30;88.40;;;;;;5062085;28;20083;-71
2021/03/24 03:57:26;;;;;;;74.70;39.28;;;6.20;88.20;;;;;;5062509;28;20044;-71
2021/03/24 04:00:38;;;;;;;69.90;40.05;;;6.20;88.50;;;;;;5062518;28;20106;-71
2021/03/24 04:03:31;;;;;;;68.88;40.10;;;6.20;88.40;;;;;;5062697;28;20092;-71
2021/03/24 04:06:41;;;;;;;73.33;40.13;;;6.20;88.50;;;;;;5061810;28;20403;-71
2021/03/24 04:09:27;;;;;;;73.05;42.53;;;6.20;88.50;;;;;;5048142;28;20538;-71
2021/03/24 04:12:15;;;;;;;67.90;38.80;;;6.10;88.40;;;;;;5062287;28;20051;-71
2021/03/24 04:15:17;;;;;;;67.18;37.15;;;6.10;88.50;;;;;;5061790;28;20055;-71
2021/03/24 04:18:13;;;;;;;70.82;40.03;;;6.10;89.10;;;;;;5061833;28;20044;-71
2021/03/24 04:21:02;;;;;;;66.38;39.75;;;6.00;88.30;;;;;;5062042;28;20048;-71
2021/03/24 04:23:57;;;;;;;72.28;39.80;;;5.90;88.20;;;;;;5061857;28;20045;-71
2021/03/24 04:26:48;;;;;;;64.97;39.85;;;5.90;88.30;;;;;;5061797;28;20040;-71
2021/03/24 04:29:42;;;;;;;70.53;38.83;;;5.90;88.40;;;;;;5062526;28;20040;-71
2021/03/24 04:32:27;;;;;;;69.50;39.20;;;5.80;88.20;;;;;;5061851;28;20040;-71
2021/03/24 04:35:17;;;;;;;70.25;39.13;;;5.70;88.50;;;;;;5061807;28;20044;-71
2021/03/24 04:38:15;;;;;;;74.80;41.40;;;5.70;88.60;;;;;;5062129;28;20048;-71
2021/03/24 04:41:06;;;;;;;72.90;40.33;;;5.70;88.50;;;;;;5062046;28;20052;-71
2021/03/24 04:44:01;;;;;;;70.75;41.53;;;5.60;88.50;;;;;;5061539;28;20136;-71
2021/03/24 04:46:48;;;;;;;73.10;40.42;;;5.60;88.90;;;;;;5061310;28;20045;-71
2021/03/24 04:49:48;;;;;;;72.47;39.38;;;5.50;88.50;;;;;;5061936;28;20045;-71
2021/03/24 04:52:35;;;;;;;72.63;40.65;;;5.50;88.70;;;;;;5061552;28;20393;-71
2021/03/24 04:55:24;;;;;;;77.18;41.25;;;5.40;89.10;;;;;;5061257;28;20056;-71
2021/03/24 04:58:22;;;;;;;77.03;41.28;;;5.40;89.30;;;;;;5061584;28;20056;-71
2021/03/24 05:01:20;;;;;;;76.25;41.40;;;5.40;89.50;;;;;;5060956;28;20045;-71
2021/03/24 05:04:15;;;;;;;82.18;43.40;;;5.40;89.50;;;;;;5061116;28;20041;-71
2021/03/24 05:07:29;;;;;;;72.60;40.78;;;5.30;89.40;;;;;;5060988;28;20041;-71
2021/03/24 05:10:20;;;;;;;78.80;42.10;;;5.30;89.70;;;;;;5061270;28;20451;-71
2021/03/24 05:13:45;;;;;;;72.82;41.45;;;5.20;90.00;;;;;;5060930;28;20055;-71
2021/03/24 05:16:40;;;;;;;76.45;45.22;;;5.20;90.00;;;;;;5060663;28;20464;-71
2021/03/24 05:19:28;;;;;;;85.15;43.42;;;5.20;90.00;;;;;;5060512;28;20485;-71
2021/03/24 05:22:43;;;;;;;82.00;42.55;;;5.20;89.90;;;;;;5060762;28;20044;-71
2021/03/24 05:25:32;;;;;;;79.10;42.83;;;5.20;90.30;;;;;;5046934;28;20077;-71
2021/03/24 05:28:36;;;;;;;85.70;43.38;;;5.10;90.00;;;;;;5061026;28;20454;-71
2021/03/24 05:31:27;;;;;;;;;;;5.10;90.00;;;;;;5061670;28;20049;-71
2021/03/24 05:34:34;;;;;;;72.72;39.47;;;5.00;90.10;;;;;;5061065;28;19917;-71
2021/03/24 05:37:26;;;;;;;83.28;42.95;;;5.10;90.20;;;;;;5060337;28;20438;-71
2021/03/24 05:40:27;;;;;;;83.15;41.90;;;5.10;90.10;;;;;;5046746;28;20048;-71
2021/03/24 05:43:48;;;;;;;73.60;43.17;;;5.10;90.10;;;;;;5060183;28;20392;-71
2021/03/24 05:47:04;;;;;;;84.28;44.25;;;5.10;90.10;;;;;;5060384;28;20086;-71
2021/03/24 05:49:53;;;;;;;76.80;41.83;;;5.10;90.10;;;;;;5060513;28;20040;-71
2021/03/24 05:53:02;;;;;;;82.13;43.67;;;5.10;90.10;;;;;;5060580;28;20437;-71
2021/03/24 05:56:10;;;;;;;82.10;43.95;;;5.10;90.10;;;;;;5059917;28;20145;-71
2021/03/24 05:59:16;;;;;;;87.38;46.60;;;5.10;90.00;;;;;;5060465;28;20055;-71
2021/03/24 06:02:13;;;;;;;81.40;43.47;;;5.00;90.00;;;;;;5059904;28;20411;-71
2021/03/24 06:05:06;;;;;;;81.65;45.70;;;5.10;90.10;;;;;;5060049;28;20044;-71
2021/03/24 06:08:33;;;;;;;81.38;44.25;;;5.10;90.10;;;;;;5059949;28;20094;-71
2021/03/24 06:11:52;;;;;;;84.93;45.13;;;5.10;90.20;;;;;;5059824;28;20044;-71
2021/03/24 06:15:01;;;;;;;85.00;45.50;;;5.10;90.30;;;;;;5059128;28;20588;-71
2021/03/24 06:18:11;;;;;;;98.30;50.33;;;5.20;90.30;;;;;;5059971;28;20052;-71
2021/03/24 06:21:10;;;;;;;95.43;49.03;;;5.20;90.30;;;;;;5060202;28;20088;-71
2021/03/24 06:24:18;;;;;;;96.97;50.67;;;5.20;90.50;;;;;;5059751;28;20052;-71
2021/03/24 06:27:20;;;;;;;95.93;51.08;;;5.40;90.50;;;;;;5059814;28;20372;-71
2021/03/24 06:30:20;;;;;;;98.10;50.78;;;5.50;90.50;;;;;;5060138;28;20048;-71
2021/03/24 06:33:43;;;;;;;98.53;52.10;;;5.50;90.70;;;;;;5059778;28;20064;-71
2021/03/24 06:36:48;;;;;;;100.85;52.53;;;5.60;90.80;;;;;;5059540;28;20143;-71
2021/03/24 06:39:57;;;;;;;109.05;57.60;;;5.80;90.70;;;;;;5059704;28;20110;-71
2021/03/24 06:43:18;;;;;;;115.20;57.50;;;6.00;90.60;;;;;;5059063;28;20587;-71
2021/03/24 06:46:19;;;;;;;109.18;54.63;;;6.20;90.60;;;;;;5058812;28;20044;-71
2021/03/24 06:49:15;;;;;;;105.40;53.92;;;6.40;90.30;;;;;;5058849;28;20500;-71
2021/03/24 06:52:28;;;;;;;109.78;57.47;;;6.60;90.20;;;;;;5059093;28;20087;-71
2021/03/24 06:55:52;;;;;;;104.80;53.42;;;6.80;89.90;;;;;;5058758;28;20045;-71
2021/03/24 06:59:06;;;;;;;107.00;54.58;;;7.10;89.10;;;;;;5059089;28;20055;-71
2021/03/24 07:02:21;;;;;;;100.60;55.22;;;7.40;88.20;;;;;;5058909;28;20504;-71
2021/03/24 07:05:31;;;;;;;110.20;57.35;;;7.60;88.10;;;;;;5037494;28;20052;-71
2021/03/24 07:08:39;;;;;;;106.75;54.47;;;7.80;87.00;;;;;;5059125;28;20055;-72
2021/03/24 07:11:46;;;;;;;105.30;58.22;;;8.00;86.50;;;;;;5058668;28;20500;-69
2021/03/24 07:14:54;;;;;;;102.53;52.05;;;8.20;85.10;;;;;;5044399;28;20496;-69
2021/03/24 07:17:49;;;;;;;100.03;54.38;;;8.40;84.90;;;;;;5058415;28;20481;-69
2021/03/24 07:20:46;;;;;;;96.68;55.33;;;8.60;84.30;;;;;;5058217;28;20485;-69
2021/03/24 07:23:35;;;;;;;93.35;51.30;;;8.80;84.00;;;;;;5058803;28;20053;-71
2021/03/24 07:26:49;;;;;;;95.22;52.78;;;9.00;83.40;;;;;;5057587;28;20502;-72
2021/03/24 07:29:54;;;;;;;92.10;52.15;;;9.20;82.10;;;;;;5058613;28;20486;-72
2021/03/24 07:32:50;;;;;;;96.50;54.08;;;9.30;82.50;;;;;;5058684;28;20040;-69
2021/03/24 07:36:09;;;;;;;94.78;53.35;;;9.60;81.30;;;;;;5058248;28;20189;-70
2021/03/24 07:39:21;;;;;;;91.28;50.38;;;9.70;80.80;;;;;;5058538;28;20062;-70
2021/03/24 07:42:41;;;;;;;89.80;50.00;;;10.00;79.90;;;;;;5058647;28;20045;-70
2021/03/24 07:46:04;;;;;;;90.47;49.97;;;10.20;79.00;;;;;;5058386;28;20044;-70
2021/03/24 07:49:22;;;;;;;89.50;50.63;;;10.50;78.20;;;;;;5044420;28;20090;-70
2021/03/24 07:52:53;;;;;;;87.30;50.70;;;10.70;77.70;;;;;;5058293;28;20045;-70
2021/03/24 07:55:43;;;;;;;87.22;50.05;;;10.90;76.70;;;;;;5057852;28;20056;-70
2021/03/24 07:59:04;;;;;;;81.82;46.53;;;11.10;76.30;;;;;;5058352;28;20388;-70
2021/03/24 08:02:28;;;;;;;86.95;46.67;;;11.20;75.40;;;;;;5058326;28;20049;-68
2021/03/24 08:05:14;;;;;;;85.80;49.05;;;11.30;75.60;;;;;;5058385;28;20040;-69
2021/03/24 08:08:16;;;;;;;81.65;48.88;;;11.40;75.80;;;;;;5058324;28;20435;-69
2021/03/24 08:11:24;;;;;;;84.10;47.22;;;11.50;74.30;;;;;;5058118;28;20056;-69
2021/03/24 08:14:31;;;;;;;74.75;45.45;;;11.70;73.90;;;;;;5058128;28;20045;-69
2021/03/24 08:17:38;;;;;;;83.05;48.75;;;11.70;74.30;;;;;;5057886;28;20043;-70
2021/03/24 08:20:22;;;;;;;75.18;46.35;;;11.70;74.40;;;;;;5072886;28;20032;-69
2021/03/24 08:23:11;;;;;;;83.57;48.13;;;11.90;73.00;;;;;;5072639;28;20094;-69
2021/03/24 08:25:59;;;;;;;79.18;45.55;;;11.90;73.20;;;;;;5072467;28;20350;-69
2021/03/24 08:28:53;;;;;;;83.50;49.20;;;12.00;72.90;;;;;;5055281;28;20040;-69
2021/03/24 08:31:49;;;;;;;78.68;46.80;;;12.10;72.30;;;;;;5072678;28;20115;-71
2021/03/24 08:35:05;;;;;;;78.72;49.13;;;12.20;71.90;;;;;;5072595;28;20047;-69
2021/03/24 08:37:42;;;;;;;84.72;50.30;;;12.30;72.40;;;;;;4974375;28;20042;-69
2021/03/24 08:40:29;;;;;;;76.30;45.30;;;12.40;72.60;;;;;;4975447;28;20083;-70
2021/03/24 08:43:12;;;;;;;77.07;46.38;;;12.40;70.50;;;;;;5044879;28;20131;-69
2021/03/24 08:45:57;;;;;;;76.22;44.30;;;12.40;71.30;;;;;;5076243;28;20492;-70
2021/03/24 08:48:48;;;;;;;77.00;42.80;;;12.50;71.90;;;;;;5076142;28;20028;-70
2021/03/24 08:51:48;;;;;;;70.90;42.00;;;12.50;70.20;;;;;;5064946;28;20141;-70
2021/03/24 08:54:26;;;;;;;66.25;38.97;;;12.80;70.10;;;;;;5076041;28;20044;-70
2021/03/24 08:57:13;;;;;;;69.35;40.08;;;12.60;69.00;;;;;;5075975;28;20036;-70
2021/03/24 08:59:51;;;;;;;67.85;39.30;;;12.50;68.70;;;;;;5076062;28;20036;-70
2021/03/24 09:02:38;;;;;;;65.28;39.20;;;12.60;69.80;;;;;;5075921;28;20040;-70
2021/03/24 09:05:27;;;;;;;60.28;36.58;;;12.60;69.50;;;;;;5076044;28;20127;-71
2021/03/24 09:08:08;;;;;;;61.47;39.13;;;12.40;68.50;;;;;;5076002;28;20037;-70
2021/03/24 09:10:49;;;;;;;61.05;36.30;;;12.30;69.30;;;;;;5076067;28;20060;-70
2021/03/24 09:13:29;;;;;;;60.08;36.17;;;12.40;69.30;;;;;;5075710;28;20507;-70
2021/03/24 09:16:19;;;;;;;61.83;37.65;;;12.50;69.90;;;;;;5075342;28;20111;-70
2021/03/24 09:18:49;;;;;;;63.25;38.45;;;12.30;69.50;;;;;;5075806;28;20045;-70
2021/03/24 09:21:28;;;;;;;61.90;37.65;;;12.50;70.50;;;;;;5075685;28;20056;-71
2021/03/24 09:23:57;;;;;;;67.55;41.42;;;12.40;69.70;;;;;;5075491;28;20044;-71
2021/03/24 09:26:34;;;;;;;63.50;37.38;;;12.40;69.50;;;;;;5075206;28;20048;-71
2021/03/24 09:29:21;;;;;;;63.35;38.20;;;12.40;70.00;;;;;;5075444;28;20041;-71
2021/03/24 09:32:18;;;;;;;66.95;40.22;;;12.30;70.50;;;;;;5075179;28;20119;-71
2021/03/24 09:35:15;;;;;;;63.85;40.47;;;12.30;69.90;;;;;;5075048;28;20086;-71
2021/03/24 09:37:45;;;;;;;60.72;35.80;;;12.20;70.20;;;;;;5075796;28;20036;-71
2021/03/24 09:40:24;;;;;;;65.65;36.22;;;12.20;70.00;;;;;;5075527;28;20089;-71
2021/03/24 09:42:52;;;;;;;69.85;37.92;;;12.20;71.50;;;;;;5075099;28;20101;-71
2021/03/24 09:45:22;;;;;;;64.15;37.30;;;12.20;70.90;;;;;;5056899;28;20047;-71
2021/03/24 09:48:08;;;;;;;63.97;36.28;;;12.20;70.60;;;;;;5056700;28;20040;-70
2021/03/24 09:51:13;;;;;;;59.80;37.40;;;12.20;70.60;;;;;;5075096;28;20440;-70
2021/03/24 09:53:41;;;;;;;63.42;38.53;;;12.10;70.90;;;;;;5075479;28;20067;-70
2021/03/24 09:56:13;;;;;;;61.47;35.45;;;12.20;71.10;;;;;;5074813;28;20040;-69
2021/03/24 09:59:07;;;;;;;58.50;36.03;;;12.40;71.60;;;;;;5075136;28;20443;-69
2021/03/24 10:02:12;;;;;;;61.05;37.70;;;12.50;71.20;;;;;;5075203;28;20119;-69
2021/03/24 10:04:45;;;;;;;63.30;38.13;;;12.60;70.40;;;;;;5057035;28;20041;-70
2021/03/24 10:07:23;;;;;;;63.42;36.35;;;12.60;70.70;;;;;;5074733;28;20047;-70
2021/03/24 10:09:55;;;;;;;59.90;35.35;;;12.60;70.90;;;;;;5074027;28;20480;-70
2021/03/24 10:13:04;;;;;;;62.03;36.80;;;12.60;71.10;;;;;;5072398;28;20048;-70
2021/03/24 10:15:41;;;;;;;51.08;32.03;;;12.50;69.70;;;;;;5072208;28;20497;-70
2021/03/24 10:18:09;;;;;;;57.53;34.85;;;12.40;70.20;;;;;;5072221;28;20037;-70
2021/03/24 10:20:54;;;;;;;54.53;32.13;;;12.50;71.00;;;;;;5072293;28;20064;-70
2021/03/24 10:23:29;;;;;;;51.35;30.85;;;12.50;70.90;;;;;;5072506;28;20040;-70
2021/03/24 10:26:07;;;;;;;51.10;30.92;;;12.40;70.30;;;;;;5073222;28;20417;-69
2021/03/24 10:28:42;;;;;;;54.53;31.48;;;12.50;70.10;;;;;;5074574;28;20063;-70
2021/03/24 10:31:25;;;;;;;47.50;28.20;;;12.40;70.60;;;;;;5074449;28;20040;-70
2021/03/24 10:33:54;;;;;;;45.43;26.47;;;12.60;70.80;;;;;;5074534;28;20048;-69
2021/03/24 10:36:29;;;;;;;45.05;28.00;;;12.60;70.20;;;;;;5073762;28;20287;-70
2021/03/24 10:39:23;;;;;;;51.58;29.67;;;12.60;69.70;;;;;;5074560;28;20557;-69
2021/03/24 10:41:57;;;;;;;50.10;30.50;;;12.60;69.80;;;;;;5074009;28;20129;-69
2021/03/24 10:44:42;;;;;;;46.90;27.88;;;12.60;69.80;;;;;;5073778;28;20045;-70
2021/03/24 10:47:16;;;;;;;46.08;28.58;;;12.60;70.20;;;;;;5074473;28;20064;-70
2021/03/24 10:49:51;;;;;;;50.05;30.23;;;12.60;70.00;;;;;;5074015;28;20075;-70
2021/03/24 10:52:25;;;;;;;50.15;29.00;;;12.70;69.80;;;;;;5073764;28;20431;-70
2021/03/24 10:55:05;;;;;;;53.40;31.25;;;12.80;69.70;;;;;;5073547;28;20062;-70
2021/03/24 10:57:47;;;;;;;49.95;30.77;;;12.70;69.90;;;;;;5073597;28;20119;-70
2021/03/24 11:00:27;;;;;;;44.60;29.38;;;12.70;70.10;;;;;;5055771;28;20033;-70
2021/03/24 11:03:13;;;;;;;50.20;30.83;;;12.80;69.70;;;;;;5073970;28;20107;-69
2021/03/24 11:05:45;;;;;;;52.83;29.17;;;12.80;69.70;;;;;;5073198;28;20094;-70
2021/03/24 11:08:11;;;;;;;47.00;30.38;;;12.80;69.60;;;;;;5073875;28;20044;-69
2021/03/24 11:10:47;;;;;;;47.10;29.15;;;12.90;69.80;;;;;;5073734;28;20464;-69
2021/03/24 11:13:39;;;;;;;45.58;27.98;;;12.80;68.90;;;;;;5073798;28;20041;-70
2021/03/24 11:16:26;;;;;;;48.85;28.75;;;12.80;69.50;;;;;;5062471;28;20048;-69
2021/03/24 11:18:57;;;;;;;48.45;29.67;;;12.80;69.70;;;;;;5073567;28;20054;-70
2021/03/24 11:21:22;;;;;;;44.00;27.48;;;12.80;68.70;;;;;;5073625;28;20036;-69
2021/03/24 11:24:11;;;;;;;42.67;26.23;;;12.80;69.20;;;;;;5073252;28;20037;-69
2021/03/24 11:27:01;;;;;;;49.33;28.48;;;12.90;68.80;;;;;;5073029;28;20115;-70
2021/03/24 11:29:29;;;;;;;46.42;28.65;;;12.90;68.10;;;;;;5073383;28;20036;-70
2021/03/24 11:32:17;;;;;;;47.63;27.63;;;12.90;68.30;;;;;;5073355;28;20048;-70
2021/03/24 11:34:52;;;;;;;45.38;26.42;;;12.90;68.10;;;;;;5073397;28;20475;-70
2021/03/24 11:37:36;;;;;;;46.13;27.27;;;13.00;68.60;;;;;;5073198;28;20037;-69
2021/03/24 11:40:22;;;;;;;;;;;13.10;69.30;;;;;;5073629;28;20055;-69
2021/03/24 11:42:55;;;;;;;48.92;27.02;;;13.00;65.70;;;;;;5073392;28;20003;-70
2021/03/24 11:45:21;;;;;;;;;;;13.10;68.80;;;;;;5073490;28;20037;-70
2021/03/24 11:48:10;;;;;;;41.28;24.08;;;13.00;66.50;;;;;;5073023;28;19924;-70
2021/03/24 11:51:03;;;;;;;46.83;27.73;;;13.10;68.50;;;;;;5054940;28;20048;-70
2021/03/24 11:54:05;;;;;;;41.80;27.30;;;13.10;67.10;;;;;;5073482;28;20040;-70
2021/03/24 11:56:49;;;;;;;41.53;25.75;;;13.30;68.60;;;;;;5068038;28;20061;-70
2021/03/24 11:59:33;;;;;;;;;;;13.20;67.80;;;;;;5073969;28;20484;-70
2021/03/24 12:02:21;;;;;;;38.72;24.52;;;13.20;67.70;;;;;;5071302;28;19927;-70
2021/03/24 12:05:09;;;;;;;42.25;24.67;;;13.30;68.50;;;;;;5073019;28;20068;-70
2021/03/24 12:07:48;;;;;;;44.30;26.48;;;13.30;67.80;;;;;;5072804;28;20044;-70
2021/03/24 12:10:34;;;;;;;42.65;24.65;;;13.30;67.50;;;;;;5073350;28;20116;-67
2021/03/24 12:13:19;;;;;;;47.05;26.75;;;13.30;67.40;;;;;;5058448;28;20496;-72
2021/03/24 12:15:46;;;;;;;42.28;25.92;;;13.30;67.10;;;;;;5076385;28;20420;-72
2021/03/24 12:18:15;;;;;;;44.63;27.35;;;13.30;67.00;;;;;;5076827;28;20040;-72
2021/03/24 12:20:48;;;;;;;44.92;29.08;;;13.40;68.60;;;;;;5076664;28;20492;-72
2021/03/24 12:23:14;;;;;;;39.85;26.38;;;13.30;67.80;;;;;;5076552;28;20040;-72
2021/03/24 12:25:46;;;;;;;40.83;24.52;;;13.20;68.40;;;;;;5076419;28;20392;-72
2021/03/24 12:28:12;;;;;;;40.25;24.50;;;13.30;68.70;;;;;;5076730;28;20042;-72
2021/03/24 12:30:44;;;;;;;40.58;24.30;;;13.20;67.40;;;;;;5076455;28;20373;-72
2021/03/24 12:33:24;;;;;;;36.70;24.33;;;13.20;68.00;;;;;;5076300;28;20052;-72
2021/03/24 12:36:15;;;;;;;40.97;23.95;;;13.30;67.20;;;;;;5076103;28;20043;-72
2021/03/24 12:38:42;;;;;;;38.17;22.95;;;13.30;66.50;;;;;;5076292;28;20037;-72
2021/03/24 12:41:08;;;;;;;30.77;19.77;;;13.40;67.10;;;;;;5076255;28;20047;-72
2021/03/24 12:43:38;;;;;;;30.10;18.38;;;13.50;64.50;;;;;;5076257;28;20044;-72
2021/03/24 12:46:16;;;;;;;30.10;18.92;;;13.50;63.40;;;;;;5075342;28;20039;-72
2021/03/24 12:48:51;;;;;;;31.50;19.08;;;13.60;62.50;;;;;;5076371;28;20055;-72
2021/03/24 12:51:37;;;;;;;29.33;17.92;;;13.70;63.80;;;;;;5075979;28;20048;-72
2021/03/24 12:54:07;;;;;;;34.70;20.67;;;13.70;64.10;;;;;;5057642;28;20092;-72
2021/03/24 12:57:02;;;;;;;35.33;20.88;;;13.80;64.30;;;;;;5076264;28;20534;-72
2021/03/24 12:59:48;;;;;;;34.65;21.10;;;13.80;62.90;;;;;;5076707;28;20033;-72
2021/03/24 13:02:38;;;;;;;33.28;20.45;;;13.70;61.90;;;;;;5076131;28;20040;-72
2021/03/24 13:05:38;;;;;;;34.95;20.63;;;13.70;62.90;;;;;;5075697;28;20111;-72
2021/03/24 13:08:32;;;;;;;34.85;21.73;;;13.70;64.70;;;;;;5075577;28;20036;-72
2021/03/24 13:11:20;;;;;;;35.92;21.10;;;13.70;62.80;;;;;;5075813;28;20044;-72
2021/03/24 13:13:56;;;;;;;34.10;21.80;;;13.70;63.60;;;;;;5076014;28;20055;-72
2021/03/24 13:16:35;;;;;;;36.92;22.92;;;13.70;65.10;;;;;;5075438;28;20089;-72
2021/03/24 13:19:19;;;;;;;38.78;22.60;;;13.80;65.70;;;;;;5075599;28;20477;-72
2021/03/24 13:22:06;;;;;;;32.70;20.70;;;14.00;63.80;;;;;;5075821;28;20090;-72
2021/03/24 13:24:58;;;;;;;30.88;20.92;;;14.10;64.10;;;;;;5073957;28;20068;-72
2021/03/24 13:27:31;;;;;;;33.95;20.60;;;14.10;62.30;;;;;;5075280;28;20412;-72
2021/03/24 13:30:15;;;;;;;29.85;20.13;;;14.10;63.60;;;;;;5075577;28;20044;-72
2021/03/24 13:32:48;;;;;;;31.00;18.73;;;14.20;61.30;;;;;;5075758;28;20044;-72
2021/03/24 13:35:23;;;;;;;30.88;17.98;;;14.10;59.60;;;;;;5075127;28;20416;-71
2021/03/24 13:37:51;;;;;;;33.42;19.80;;;14.00;60.80;;;;;;5075114;28;20116;-70
2021/03/24 13:40:25;;;;;;;31.00;18.48;;;14.20;61.10;;;;;;5075687;28;20037;-71
2021/03/24 13:42:53;;;;;;;31.38;20.88;;;14.20;59.70;;;;;;5075454;28;20037;-70
2021/03/24 13:45:29;;;;;;;31.55;19.90;;;14.30;58.80;;;;;;5074934;28;20115;-71
2021/03/24 13:48:21;;;;;;;30.70;20.00;;;14.50;59.60;;;;;;5075459;28;20036;-70
2021/03/24 13:51:01;;;;;;;32.10;20.75;;;14.40;58.20;;;;;;5070991;28;20079;-71
2021/03/24 13:53:55;;;;;;;31.95;20.27;;;14.40;58.60;;;;;;5075081;28;20045;-71
2021/03/24 13:56:51;;;;;;;35.85;22.65;;;14.60;58.70;;;;;;5074477;28;20049;-71
2021/03/24 13:59:27;;;;;;;31.48;21.02;;;14.60;59.60;;;;;;5074841;28;20515;-70
2021/03/24 14:02:34;;;;;;;32.35;21.10;;;14.60;58.90;;;;;;5073604;28;20040;-70
2021/03/24 14:05:15;;;;;;;37.58;22.92;;;14.50;59.40;;;;;;4993262;28;20038;-71
2021/03/24 14:08:10;;;;;;;34.63;21.80;;;14.50;60.00;;;;;;4993417;28;20049;-71
2021/03/24 14:10:45;;;;;;;33.95;22.73;;;14.50;60.40;;;;;;5058067;28;20072;-70
2021/03/24 14:13:35;;;;;;;36.45;24.50;;;14.50;60.80;;;;;;5075035;28;20045;-70
2021/03/24 14:16:22;;;;;;;37.45;24.05;;;14.60;59.80;;;;;;5074405;28;20102;-70
2021/03/24 14:19:03;;;;;;;34.95;24.08;;;14.70;60.20;;;;;;5074511;28;20041;-70
2021/03/24 14:21:49;;;;;;;37.90;23.88;;;14.60;60.70;;;;;;5074194;28;20679;-70
2021/03/24 14:24:33;;;;;;;39.10;25.00;;;14.40;59.40;;;;;;5074451;28;20041;-70
2021/03/24 14:27:05;;;;;;;38.15;25.83;;;14.50;61.10;;;;;;5074430;28;20040;-70
2021/03/24 14:29:31;;;;;;;38.83;25.75;;;14.30;59.70;;;;;;5074660;28;20045;-70